sensor_id;sensor_type;location;lat;lon;timestamp;temperature;humidity
67354;SHT30;54238;52.278;21.056;2022-11-24T00:00:53;1.89;72.54
67354;SHT30;54238;52.278;21.056;2022-11-24T00:03:25;1.83;72.52
67354;SHT30;54238;52.278;21.056;2022-11-24T00:05:54;1.70;72.64
67354;SHT30;54238;52.278;21.056;2022-11-24T00:08:21;1.62;72.86
67354;SHT30;54238;52.278;21.056;2022-11-24T00:10:55;1.57;73.12
67354;SHT30;54238;52.278;21.056;2022-11-24T00:13:29;1.54;73.22
67354;SHT30;54238;52.278;21.056;2022-11-24T00:16:05;1.49;73.18
67354;SHT30;54238;52.278;21.056;2022-11-24T00:18:40;1.47;73.17
67354;SHT30;54238;52.278;21.056;2022-11-24T00:21:14;1.58;73.18
67354;SHT30;54238;52.278;21.056;2022-11-24T00:23:44;1.74;73.12
67354;SHT30;54238;52.278;21.056;2022-11-24T00:26:17;1.89;72.98
67354;SHT30;54238;52.278;21.056;2022-11-24T00:28:46;1.97;72.70
67354;SHT30;54238;52.278;21.056;2022-11-24T00:31:21;1.96;72.61
67354;SHT30;54238;52.278;21.056;2022-11-24T00:33:49;1.90;72.62
67354;SHT30;54238;52.278;21.056;2022-11-24T00:36:19;1.81;72.66
67354;SHT30;54238;52.278;21.056;2022-11-24T00:38:53;1.73;72.80
67354;SHT30;54238;52.278;21.056;2022-11-24T00:41:22;1.68;73.07
67354;SHT30;54238;52.278;21.056;2022-11-24T00:43:51;1.65;73.05
67354;SHT30;54238;52.278;21.056;2022-11-24T00:46:21;1.59;73.20
67354;SHT30;54238;52.278;21.056;2022-11-24T00:48:54;1.59;73.32
67354;SHT30;54238;52.278;21.056;2022-11-24T00:51:24;1.73;73.29
67354;SHT30;54238;52.278;21.056;2022-11-24T00:53:59;1.87;72.91
67354;SHT30;54238;52.278;21.056;2022-11-24T00:56:30;1.92;72.62
67354;SHT30;54238;52.278;21.056;2022-11-24T00:58:57;1.95;72.76
67354;SHT30;54238;52.278;21.056;2022-11-24T01:01:28;1.93;72.71
67354;SHT30;54238;52.278;21.056;2022-11-24T01:03:57;1.92;72.83
67354;SHT30;54238;52.278;21.056;2022-11-24T01:06:28;1.86;72.85
67354;SHT30;54238;52.278;21.056;2022-11-24T01:09:01;1.79;73.01
67354;SHT30;54238;52.278;21.056;2022-11-24T01:11:35;1.73;73.08
67354;SHT30;54238;52.278;21.056;2022-11-24T01:14:23;1.68;73.22
67354;SHT30;54238;52.278;21.056;2022-11-24T01:16:51;1.72;73.22
67354;SHT30;54238;52.278;21.056;2022-11-24T01:19:19;1.80;72.96
67354;SHT30;54238;52.278;21.056;2022-11-24T01:21:52;1.89;72.89
67354;SHT30;54238;52.278;21.056;2022-11-24T01:24:19;2.00;72.89
67354;SHT30;54238;52.278;21.056;2022-11-24T01:29:33;2.11;72.60
67354;SHT30;54238;52.278;21.056;2022-11-24T01:35:01;1.99;72.61
67354;SHT30;54238;52.278;21.056;2022-11-24T01:37:37;1.92;72.70
67354;SHT30;54238;52.278;21.056;2022-11-24T01:40:06;1.89;72.91
67354;SHT30;54238;52.278;21.056;2022-11-24T01:42:48;1.86;72.86
67354;SHT30;54238;52.278;21.056;2022-11-24T01:45:27;1.79;72.94
67354;SHT30;54238;52.278;21.056;2022-11-24T01:48:01;1.73;73.05
67354;SHT30;54238;52.278;21.056;2022-11-24T01:50:43;1.76;73.11
67354;SHT30;54238;52.278;21.056;2022-11-24T01:53:14;1.87;72.99
67354;SHT30;54238;52.278;21.056;2022-11-24T01:55:43;2.01;72.75
67354;SHT30;54238;52.278;21.056;2022-11-24T01:58:12;2.14;72.52
67354;SHT30;54238;52.278;21.056;2022-11-24T02:00:46;2.23;72.32
67354;SHT30;54238;52.278;21.056;2022-11-24T02:03:14;2.23;72.31
67354;SHT30;54238;52.278;21.056;2022-11-24T02:05:50;2.17;72.17
67354;SHT30;54238;52.278;21.056;2022-11-24T02:08:44;2.03;72.29
67354;SHT30;54238;52.278;21.056;2022-11-24T02:11:16;1.95;72.58
67354;SHT30;54238;52.278;21.056;2022-11-24T02:13:46;1.88;72.66
67354;SHT30;54238;52.278;21.056;2022-11-24T02:16:15;1.77;72.93
67354;SHT30;54238;52.278;21.056;2022-11-24T02:18:45;1.72;73.20
67354;SHT30;54238;52.278;21.056;2022-11-24T02:21:14;1.75;73.25
67354;SHT30;54238;52.278;21.056;2022-11-24T02:24:04;1.83;73.24
67354;SHT30;54238;52.278;21.056;2022-11-24T02:26:46;1.96;73.02
67354;SHT30;54238;52.278;21.056;2022-11-24T02:29:20;2.08;72.83
67354;SHT30;54238;52.278;21.056;2022-11-24T02:31:58;2.14;72.68
67354;SHT30;54238;52.278;21.056;2022-11-24T02:34:30;2.13;72.77
67354;SHT30;54238;52.278;21.056;2022-11-24T02:36:57;2.09;72.73
67354;SHT30;54238;52.278;21.056;2022-11-24T02:39:26;1.99;72.81
67354;SHT30;54238;52.278;21.056;2022-11-24T02:41:57;1.90;73.00
67354;SHT30;54238;52.278;21.056;2022-11-24T02:44:35;1.80;73.08
67354;SHT30;54238;52.278;21.056;2022-11-24T02:47:10;1.68;73.21
67354;SHT30;54238;52.278;21.056;2022-11-24T02:49:39;1.59;73.51
67354;SHT30;54238;52.278;21.056;2022-11-24T02:52:06;1.54;73.71
67354;SHT30;54238;52.278;21.056;2022-11-24T02:54:36;1.55;73.75
67354;SHT30;54238;52.278;21.056;2022-11-24T02:57:03;1.65;73.64
67354;SHT30;54238;52.278;21.056;2022-11-24T02:59:34;1.78;73.50
67354;SHT30;54238;52.278;21.056;2022-11-24T03:02:01;1.92;73.36
67354;SHT30;54238;52.278;21.056;2022-11-24T03:04:33;2.03;73.08
67354;SHT30;54238;52.278;21.056;2022-11-24T03:07:05;2.07;72.88
67354;SHT30;54238;52.278;21.056;2022-11-24T03:09:35;2.04;73.00
67354;SHT30;54238;52.278;21.056;2022-11-24T03:12:04;2.00;73.03
67354;SHT30;54238;52.278;21.056;2022-11-24T03:14:32;1.94;73.18
67354;SHT30;54238;52.278;21.056;2022-11-24T03:16:58;1.90;73.27
67354;SHT30;54238;52.278;21.056;2022-11-24T03:19:25;1.86;73.39
67354;SHT30;54238;52.278;21.056;2022-11-24T03:21:52;1.77;73.41
67354;SHT30;54238;52.278;21.056;2022-11-24T03:24:21;1.70;73.80
67354;SHT30;54238;52.278;21.056;2022-11-24T03:26:51;1.74;73.83
67354;SHT30;54238;52.278;21.056;2022-11-24T03:29:20;1.87;73.66
67354;SHT30;54238;52.278;21.056;2022-11-24T03:31:50;2.03;73.37
67354;SHT30;54238;52.278;21.056;2022-11-24T03:34:22;2.18;73.22
67354;SHT30;54238;52.278;21.056;2022-11-24T03:36:48;2.24;72.85
67354;SHT30;54238;52.278;21.056;2022-11-24T03:39:18;2.24;72.76
67354;SHT30;54238;52.278;21.056;2022-11-24T03:41:44;2.20;72.70
67354;SHT30;54238;52.278;21.056;2022-11-24T03:44:19;2.13;72.78
67354;SHT30;54238;52.278;21.056;2022-11-24T03:46:49;2.03;72.78
67354;SHT30;54238;52.278;21.056;2022-11-24T03:49:19;1.93;73.03
67354;SHT30;54238;52.278;21.056;2022-11-24T03:51:46;1.80;73.14
67354;SHT30;54238;52.278;21.056;2022-11-24T03:54:16;1.70;73.36
67354;SHT30;54238;52.278;21.056;2022-11-24T03:56:45;1.66;73.62
67354;SHT30;54238;52.278;21.056;2022-11-24T03:59:14;1.70;73.53
67354;SHT30;54238;52.278;21.056;2022-11-24T04:01:48;1.82;73.42
67354;SHT30;54238;52.278;21.056;2022-11-24T04:04:16;1.92;73.09
67354;SHT30;54238;52.278;21.056;2022-11-24T04:09:43;2.04;72.92
67354;SHT30;54238;52.278;21.056;2022-11-24T04:12:13;2.04;72.95
67354;SHT30;54238;52.278;21.056;2022-11-24T04:15:01;1.99;73.02
67354;SHT30;54238;52.278;21.056;2022-11-24T04:17:31;1.93;73.13
67354;SHT30;54238;52.278;21.056;2022-11-24T04:20:00;1.89;73.21
67354;SHT30;54238;52.278;21.056;2022-11-24T04:22:33;1.80;73.19
67354;SHT30;54238;52.278;21.056;2022-11-24T04:25:01;1.67;73.40
67354;SHT30;54238;52.278;21.056;2022-11-24T04:27:33;1.61;73.69
67354;SHT30;54238;52.278;21.056;2022-11-24T04:30:03;1.66;73.78
67354;SHT30;54238;52.278;21.056;2022-11-24T04:35:31;2.00;73.32
67354;SHT30;54238;52.278;21.056;2022-11-24T04:38:00;2.15;73.07
67354;SHT30;54238;52.278;21.056;2022-11-24T04:40:30;2.22;72.93
67354;SHT30;54238;52.278;21.056;2022-11-24T04:42:58;2.23;72.85
67354;SHT30;54238;52.278;21.056;2022-11-24T04:45:25;2.19;72.70
67354;SHT30;54238;52.278;21.056;2022-11-24T04:47:57;2.11;72.69
67354;SHT30;54238;52.278;21.056;2022-11-24T04:50:24;2.04;72.77
67354;SHT30;54238;52.278;21.056;2022-11-24T04:52:56;1.98;72.85
67354;SHT30;54238;52.278;21.056;2022-11-24T04:55:26;1.92;72.99
67354;SHT30;54238;52.278;21.056;2022-11-24T04:57:53;1.88;73.12
67354;SHT30;54238;52.278;21.056;2022-11-24T05:00:20;1.88;73.10
67354;SHT30;54238;52.278;21.056;2022-11-24T05:02:49;1.95;72.87
67354;SHT30;54238;52.278;21.056;2022-11-24T05:05:21;2.09;72.82
67354;SHT30;54238;52.278;21.056;2022-11-24T05:07:50;2.25;72.59
67354;SHT30;54238;52.278;21.056;2022-11-24T05:10:24;2.33;72.43
67354;SHT30;54238;52.278;21.056;2022-11-24T05:13:09;2.36;72.23
67354;SHT30;54238;52.278;21.056;2022-11-24T05:15:44;2.31;72.13
67354;SHT30;54238;52.278;21.056;2022-11-24T05:18:11;2.26;72.21
67354;SHT30;54238;52.278;21.056;2022-11-24T05:20:46;2.17;72.20
67354;SHT30;54238;52.278;21.056;2022-11-24T05:23:16;2.10;72.34
67354;SHT30;54238;52.278;21.056;2022-11-24T05:25:46;2.04;72.56
67354;SHT30;54238;52.278;21.056;2022-11-24T05:28:14;2.00;72.53
67354;SHT30;54238;52.278;21.056;2022-11-24T05:30:45;1.91;72.54
67354;SHT30;54238;52.278;21.056;2022-11-24T05:33:13;1.88;72.75
67354;SHT30;54238;52.278;21.056;2022-11-24T05:35:44;2.01;72.56
67354;SHT30;54238;52.278;21.056;2022-11-24T05:38:16;2.15;72.37
67354;SHT30;54238;52.278;21.056;2022-11-24T05:40:45;2.28;72.23
67354;SHT30;54238;52.278;21.056;2022-11-24T05:43:17;2.39;72.15
67354;SHT30;54238;52.278;21.056;2022-11-24T05:45:44;2.37;71.93
67354;SHT30;54238;52.278;21.056;2022-11-24T05:48:13;2.33;72.04
67354;SHT30;54238;52.278;21.056;2022-11-24T05:50:41;2.26;72.10
67354;SHT30;54238;52.278;21.056;2022-11-24T05:53:12;2.21;72.17
67354;SHT30;54238;52.278;21.056;2022-11-24T05:55:43;2.13;72.20
67354;SHT30;54238;52.278;21.056;2022-11-24T05:58:13;2.05;72.34
67354;SHT30;54238;52.278;21.056;2022-11-24T06:00:40;1.96;72.51
67354;SHT30;54238;52.278;21.056;2022-11-24T06:03:07;1.91;72.73
67354;SHT30;54238;52.278;21.056;2022-11-24T06:05:43;1.93;72.71
67354;SHT30;54238;52.278;21.056;2022-11-24T06:08:12;2.02;72.61
67354;SHT30;54238;52.278;21.056;2022-11-24T06:13:36;2.31;72.21
67354;SHT30;54238;52.278;21.056;2022-11-24T06:16:07;2.37;72.12
67354;SHT30;54238;52.278;21.056;2022-11-24T06:18:36;2.40;72.10
67354;SHT30;54238;52.278;21.056;2022-11-24T06:21:09;2.39;71.92
67354;SHT30;54238;52.278;21.056;2022-11-24T06:23:36;2.32;72.07
67354;SHT30;54238;52.278;21.056;2022-11-24T06:29:07;2.09;72.46
67354;SHT30;54238;52.278;21.056;2022-11-24T06:31:39;2.01;72.64
67354;SHT30;54238;52.278;21.056;2022-11-24T06:34:09;1.95;72.70
67354;SHT30;54238;52.278;21.056;2022-11-24T06:36:41;1.99;72.79
67354;SHT30;54238;52.278;21.056;2022-11-24T06:39:10;2.10;72.75
67354;SHT30;54238;52.278;21.056;2022-11-24T06:41:37;2.23;72.57
67354;SHT30;54238;52.278;21.056;2022-11-24T06:44:06;2.34;72.36
67354;SHT30;54238;52.278;21.056;2022-11-24T06:46:34;2.42;72.30
67354;SHT30;54238;52.278;21.056;2022-11-24T06:49:06;2.44;72.20
67354;SHT30;54238;52.278;21.056;2022-11-24T06:51:33;2.41;72.12
67354;SHT30;54238;52.278;21.056;2022-11-24T06:54:06;2.35;72.11
67354;SHT30;54238;52.278;21.056;2022-11-24T06:56:33;2.29;72.20
67354;SHT30;54238;52.278;21.056;2022-11-24T06:59:03;2.23;72.36
67354;SHT30;54238;52.278;21.056;2022-11-24T07:01:33;2.19;72.52
67354;SHT30;54238;52.278;21.056;2022-11-24T07:04:00;2.14;72.46
67354;SHT30;54238;52.278;21.056;2022-11-24T07:06:27;2.10;72.59
67354;SHT30;54238;52.278;21.056;2022-11-24T07:08:56;2.06;72.77
67354;SHT30;54238;52.278;21.056;2022-11-24T07:11:24;2.12;72.78
67354;SHT30;54238;52.278;21.056;2022-11-24T07:13:50;2.27;72.98
67354;SHT30;54238;52.278;21.056;2022-11-24T07:16:21;2.43;72.50
67354;SHT30;54238;52.278;21.056;2022-11-24T07:18:54;2.60;71.94
67354;SHT30;54238;52.278;21.056;2022-11-24T07:21:22;2.66;71.74
67354;SHT30;54238;52.278;21.056;2022-11-24T07:23:56;2.65;71.51
67354;SHT30;54238;52.278;21.056;2022-11-24T07:26:24;2.65;71.57
67354;SHT30;54238;52.278;21.056;2022-11-24T07:28:57;2.63;71.41
67354;SHT30;54238;52.278;21.056;2022-11-24T07:31:26;2.51;71.27
67354;SHT30;54238;52.278;21.056;2022-11-24T07:33:56;2.41;71.43
67354;SHT30;54238;52.278;21.056;2022-11-24T07:36:24;2.34;71.58
67354;SHT30;54238;52.278;21.056;2022-11-24T07:38:53;2.29;71.51
67354;SHT30;54238;52.278;21.056;2022-11-24T07:41:27;2.22;71.65
67354;SHT30;54238;52.278;21.056;2022-11-24T07:43:56;2.15;71.85
67354;SHT30;54238;52.278;21.056;2022-11-24T07:46:25;2.16;72.07
67354;SHT30;54238;52.278;21.056;2022-11-24T07:48:55;2.31;71.85
67354;SHT30;54238;52.278;21.056;2022-11-24T07:51:24;2.50;71.67
67354;SHT30;54238;52.278;21.056;2022-11-24T07:53:53;2.65;71.36
67354;SHT30;54238;52.278;21.056;2022-11-24T07:56:25;2.74;71.23
67354;SHT30;54238;52.278;21.056;2022-11-24T07:58:52;2.73;71.05
67354;SHT30;54238;52.278;21.056;2022-11-24T08:01:19;2.70;70.99
67354;SHT30;54238;52.278;21.056;2022-11-24T08:03:48;2.64;71.16
67354;SHT30;54238;52.278;21.056;2022-11-24T08:06:17;2.62;71.26
67354;SHT30;54238;52.278;21.056;2022-11-24T08:08:45;2.57;71.29
67354;SHT30;54238;52.278;21.056;2022-11-24T08:11:16;2.48;71.21
67354;SHT30;54238;52.278;21.056;2022-11-24T08:13:47;2.39;71.29
67354;SHT30;54238;52.278;21.056;2022-11-24T08:16:16;2.36;71.47
67354;SHT30;54238;52.278;21.056;2022-11-24T08:18:50;2.32;71.49
67354;SHT30;54238;52.278;21.056;2022-11-24T08:21:22;2.30;71.53
67354;SHT30;54238;52.278;21.056;2022-11-24T08:23:56;2.33;71.41
67354;SHT30;54238;52.278;21.056;2022-11-24T08:26:25;2.41;71.41
67354;SHT30;54238;52.278;21.056;2022-11-24T08:28:56;2.58;71.32
67354;SHT30;54238;52.278;21.056;2022-11-24T08:31:26;2.74;71.01
67354;SHT30;54238;52.278;21.056;2022-11-24T08:33:59;2.82;70.64
67354;SHT30;54238;52.278;21.056;2022-11-24T08:36:30;2.81;70.61
67354;SHT30;54238;52.278;21.056;2022-11-24T08:38:58;2.80;70.74
67354;SHT30;54238;52.278;21.056;2022-11-24T08:41:29;2.76;70.72
67354;SHT30;54238;52.278;21.056;2022-11-24T08:44:02;2.74;70.83
67354;SHT30;54238;52.278;21.056;2022-11-24T08:46:36;2.72;70.90
67354;SHT30;54238;52.278;21.056;2022-11-24T08:49:05;2.69;70.93
67354;SHT30;54238;52.278;21.056;2022-11-24T08:51:32;2.65;70.96
67354;SHT30;54238;52.278;21.056;2022-11-24T08:54:00;2.59;71.04
67354;SHT30;54238;52.278;21.056;2022-11-24T08:56:30;2.54;71.25
67354;SHT30;54238;52.278;21.056;2022-11-24T08:58:59;2.56;71.30
67354;SHT30;54238;52.278;21.056;2022-11-24T09:01:28;2.65;71.26
67354;SHT30;54238;52.278;21.056;2022-11-24T09:03:56;2.79;71.03
67354;SHT30;54238;52.278;21.056;2022-11-24T09:06:25;2.90;70.81
67354;SHT30;54238;52.278;21.056;2022-11-24T09:09:02;2.97;70.79
67354;SHT30;54238;52.278;21.056;2022-11-24T09:11:29;2.99;70.84
67354;SHT30;54238;52.278;21.056;2022-11-24T09:14:05;2.95;70.71
67354;SHT30;54238;52.278;21.056;2022-11-24T09:16:34;2.90;70.78
67354;SHT30;54238;52.278;21.056;2022-11-24T09:19:03;2.83;70.75
67354;SHT30;54238;52.278;21.056;2022-11-24T09:21:34;2.81;70.82
67354;SHT30;54238;52.278;21.056;2022-11-24T09:24:08;2.78;70.93
67354;SHT30;54238;52.278;21.056;2022-11-24T09:26:36;2.76;71.00
67354;SHT30;54238;52.278;21.056;2022-11-24T09:29:04;2.71;71.27
67354;SHT30;54238;52.278;21.056;2022-11-24T09:31:35;2.76;71.24
67354;SHT30;54238;52.278;21.056;2022-11-24T09:34:09;2.87;71.23
67354;SHT30;54238;52.278;21.056;2022-11-24T09:36:41;3.03;70.95
67354;SHT30;54238;52.278;21.056;2022-11-24T09:39:11;3.17;70.73
67354;SHT30;54238;52.278;21.056;2022-11-24T09:42:24;3.23;70.49
67354;SHT30;54238;52.278;21.056;2022-11-24T09:48:18;3.28;70.25
67354;SHT30;54238;52.278;21.056;2022-11-24T09:50:52;3.24;70.40
67354;SHT30;54238;52.278;21.056;2022-11-24T09:56:13;3.14;70.47
67354;SHT30;54238;52.278;21.056;2022-11-24T09:58:43;3.14;70.56
67354;SHT30;54238;52.278;21.056;2022-11-24T10:04:18;3.12;70.47
67354;SHT30;54238;52.278;21.056;2022-11-24T10:18:51;3.53;69.62
67354;SHT30;54238;52.278;21.056;2022-11-24T10:27:18;3.44;69.86
67354;SHT30;54238;52.278;21.056;2022-11-24T10:29:59;3.37;69.90
67354;SHT30;54238;52.278;21.056;2022-11-24T10:32:40;3.34;69.83
67354;SHT30;54238;52.278;21.056;2022-11-24T10:36:06;3.28;70.10
67354;SHT30;54238;52.278;21.056;2022-11-24T10:38:34;3.24;70.15
67354;SHT30;54238;52.278;21.056;2022-11-24T10:41:13;3.24;70.14
67354;SHT30;54238;52.278;21.056;2022-11-24T10:43:49;3.31;69.98
67354;SHT30;54238;52.278;21.056;2022-11-24T10:46:26;3.42;69.87
67354;SHT30;54238;52.278;21.056;2022-11-24T10:48:57;3.60;69.60
67354;SHT30;54238;52.278;21.056;2022-11-24T10:51:52;3.73;69.31
67354;SHT30;54238;52.278;21.056;2022-11-24T10:54:33;3.83;69.07
67354;SHT30;54238;52.278;21.056;2022-11-24T10:57:04;3.84;69.00
67354;SHT30;54238;52.278;21.056;2022-11-24T10:59:37;3.78;68.92
67354;SHT30;54238;52.278;21.056;2022-11-24T11:02:25;3.69;68.92
67354;SHT30;54238;52.278;21.056;2022-11-24T11:11:06;3.44;69.45
67354;SHT30;54238;52.278;21.056;2022-11-24T11:16:31;3.38;69.60
67354;SHT30;54238;52.278;21.056;2022-11-24T11:19:26;3.38;69.65
67354;SHT30;54238;52.278;21.056;2022-11-24T11:22:18;3.34;69.77
67354;SHT30;54238;52.278;21.056;2022-11-24T11:25:12;3.41;69.73
67354;SHT30;54238;52.278;21.056;2022-11-24T11:28:09;3.60;69.45
67354;SHT30;54238;52.278;21.056;2022-11-24T11:31:04;3.80;69.05
67354;SHT30;54238;52.278;21.056;2022-11-24T11:33:56;3.89;68.55
67354;SHT30;54238;52.278;21.056;2022-11-24T11:36:29;3.87;68.33
67354;SHT30;54238;52.278;21.056;2022-11-24T11:39:03;3.83;68.26
67354;SHT30;54238;52.278;21.056;2022-11-24T11:41:40;3.78;68.15
67354;SHT30;54238;52.278;21.056;2022-11-24T11:44:28;3.71;68.17
67354;SHT30;54238;52.278;21.056;2022-11-24T11:47:14;3.63;68.28
67354;SHT30;54238;52.278;21.056;2022-11-24T11:49:53;3.55;68.39
67354;SHT30;54238;52.278;21.056;2022-11-24T11:58:40;3.32;68.72
67354;SHT30;54238;52.278;21.056;2022-11-24T12:13:44;3.39;68.77
67354;SHT30;54238;52.278;21.056;2022-11-24T12:19:44;3.51;68.42
67354;SHT30;54238;52.278;21.056;2022-11-24T12:23:01;3.44;68.32
67354;SHT30;54238;52.278;21.056;2022-11-24T12:25:34;3.39;68.63
67354;SHT30;54238;52.278;21.056;2022-11-24T12:34:12;3.28;69.25
67354;SHT30;54238;52.278;21.056;2022-11-24T12:40:01;3.11;69.44
67354;SHT30;54238;52.278;21.056;2022-11-24T12:45:53;3.10;69.73
67354;SHT30;54238;52.278;21.056;2022-11-24T12:51:53;3.38;69.14
67354;SHT30;54238;52.278;21.056;2022-11-24T12:54:35;3.53;68.69
67354;SHT30;54238;52.278;21.056;2022-11-24T12:57:12;3.60;68.61
67354;SHT30;54238;52.278;21.056;2022-11-24T13:00:04;3.60;68.57
67354;SHT30;54238;52.278;21.056;2022-11-24T13:05:54;3.47;68.87
67354;SHT30;54238;52.278;21.056;2022-11-24T13:08:39;3.41;68.83
67354;SHT30;54238;52.278;21.056;2022-11-24T13:13:57;3.33;68.89
67354;SHT30;54238;52.278;21.056;2022-11-24T13:16:29;3.25;69.27
67354;SHT30;54238;52.278;21.056;2022-11-24T13:18:57;3.17;69.09
67354;SHT30;54238;52.278;21.056;2022-11-24T13:26:45;3.28;69.06
67354;SHT30;54238;52.278;21.056;2022-11-24T13:31:54;3.48;68.75
67354;SHT30;54238;52.278;21.056;2022-11-24T13:39:52;3.45;68.72
67354;SHT30;54238;52.278;21.056;2022-11-24T13:42:29;3.39;68.82
67354;SHT30;54238;52.278;21.056;2022-11-24T13:58:29;3.00;69.61
67354;SHT30;54238;52.278;21.056;2022-11-24T14:04:22;3.15;69.49
67354;SHT30;54238;52.278;21.056;2022-11-24T14:09:22;3.35;69.35
67354;SHT30;54238;52.278;21.056;2022-11-24T14:12:06;3.36;69.27
67354;SHT30;54238;52.278;21.056;2022-11-24T14:14:51;3.31;69.30
67354;SHT30;54238;52.278;21.056;2022-11-24T14:17:40;3.17;69.48
67354;SHT30;54238;52.278;21.056;2022-11-24T14:20:15;3.10;69.69
67354;SHT30;54238;52.278;21.056;2022-11-24T14:22:49;3.02;69.82
67354;SHT30;54238;52.278;21.056;2022-11-24T14:25:26;2.94;70.01
67354;SHT30;54238;52.278;21.056;2022-11-24T14:28:01;2.90;70.21
67354;SHT30;54238;52.278;21.056;2022-11-24T14:30:32;2.91;70.15
67354;SHT30;54238;52.278;21.056;2022-11-24T14:33:00;2.98;70.01
67354;SHT30;54238;52.278;21.056;2022-11-24T14:35:32;3.07;69.90
67354;SHT30;54238;52.278;21.056;2022-11-24T14:38:01;3.19;69.74
67354;SHT30;54238;52.278;21.056;2022-11-24T14:43:32;3.18;69.77
67354;SHT30;54238;52.278;21.056;2022-11-24T14:46:06;3.09;69.75
67354;SHT30;54238;52.278;21.056;2022-11-24T14:48:48;2.97;69.94
67354;SHT30;54238;52.278;21.056;2022-11-24T14:51:33;2.87;70.20
67354;SHT30;54238;52.278;21.056;2022-11-24T14:54:12;2.84;70.17
67354;SHT30;54238;52.278;21.056;2022-11-24T14:56:59;2.74;70.24
67354;SHT30;54238;52.278;21.056;2022-11-24T15:00:01;2.65;70.65
67354;SHT30;54238;52.278;21.056;2022-11-24T15:05:18;2.73;70.78
67354;SHT30;54238;52.278;21.056;2022-11-24T15:07:50;2.86;70.52
67354;SHT30;54238;52.278;21.056;2022-11-24T15:10:35;2.97;70.31
67354;SHT30;54238;52.278;21.056;2022-11-24T15:13:18;3.04;70.12
67354;SHT30;54238;52.278;21.056;2022-11-24T15:15:58;3.05;70.10
67354;SHT30;54238;52.278;21.056;2022-11-24T15:18:35;2.99;70.23
67354;SHT30;54238;52.278;21.056;2022-11-24T15:21:08;2.90;70.39
67354;SHT30;54238;52.278;21.056;2022-11-24T15:23:36;2.83;70.47
67354;SHT30;54238;52.278;21.056;2022-11-24T15:28:40;2.71;70.62
67354;SHT30;54238;52.278;21.056;2022-11-24T15:31:14;2.62;71.06
67354;SHT30;54238;52.278;21.056;2022-11-24T15:33:41;2.63;71.13
67354;SHT30;54238;52.278;21.056;2022-11-24T15:36:10;2.68;70.99
67354;SHT30;54238;52.278;21.056;2022-11-24T15:38:44;2.79;70.86
67354;SHT30;54238;52.278;21.056;2022-11-24T15:41:21;2.91;70.62
67354;SHT30;54238;52.278;21.056;2022-11-24T15:43:58;3.03;70.48
67354;SHT30;54238;52.278;21.056;2022-11-24T15:46:29;3.10;70.30
67354;SHT30;54238;52.278;21.056;2022-11-24T15:49:03;3.05;70.28
67354;SHT30;54238;52.278;21.056;2022-11-24T15:51:33;3.01;70.40
67354;SHT30;54238;52.278;21.056;2022-11-24T15:54:07;2.93;70.50
67354;SHT30;54238;52.278;21.056;2022-11-24T15:56:42;2.85;70.55
67354;SHT30;54238;52.278;21.056;2022-11-24T15:59:15;2.74;70.81
67354;SHT30;54238;52.278;21.056;2022-11-24T16:01:44;2.65;70.95
67354;SHT30;54238;52.278;21.056;2022-11-24T16:04:16;2.58;71.23
67354;SHT30;54238;52.278;21.056;2022-11-24T16:06:46;2.56;71.39
67354;SHT30;54238;52.278;21.056;2022-11-24T16:09:20;2.65;71.31
67354;SHT30;54238;52.278;21.056;2022-11-24T16:11:49;2.77;71.15
67354;SHT30;54238;52.278;21.056;2022-11-24T16:14:16;2.90;71.02
67354;SHT30;54238;52.278;21.056;2022-11-24T16:16:46;3.02;70.82
67354;SHT30;54238;52.278;21.056;2022-11-24T16:19:18;3.07;70.63
67354;SHT30;54238;52.278;21.056;2022-11-24T16:21:48;3.06;70.75
67354;SHT30;54238;52.278;21.056;2022-11-24T16:24:17;3.03;70.84
67354;SHT30;54238;52.278;21.056;2022-11-24T16:26:46;2.98;70.92
67354;SHT30;54238;52.278;21.056;2022-11-24T16:29:13;2.90;71.04
67354;SHT30;54238;52.278;21.056;2022-11-24T16:31:43;2.81;71.22
67354;SHT30;54238;52.278;21.056;2022-11-24T16:34:13;2.74;71.41
67354;SHT30;54238;52.278;21.056;2022-11-24T16:36:40;2.71;71.59
67354;SHT30;54238;52.278;21.056;2022-11-24T16:39:10;2.75;71.71
67354;SHT30;54238;52.278;21.056;2022-11-24T16:41:42;2.86;71.39
67354;SHT30;54238;52.278;21.056;2022-11-24T16:44:14;2.94;71.19
67354;SHT30;54238;52.278;21.056;2022-11-24T16:46:48;3.02;71.14
67354;SHT30;54238;52.278;21.056;2022-11-24T16:49:17;3.07;71.10
67354;SHT30;54238;52.278;21.056;2022-11-24T16:51:49;3.09;71.12
67354;SHT30;54238;52.278;21.056;2022-11-24T16:54:23;3.09;71.00
67354;SHT30;54238;52.278;21.056;2022-11-24T16:56:51;3.01;70.97
67354;SHT30;54238;52.278;21.056;2022-11-24T16:59:20;2.93;71.14
67354;SHT30;54238;52.278;21.056;2022-11-24T17:01:49;2.87;71.23
67354;SHT30;54238;52.278;21.056;2022-11-24T17:04:19;2.81;71.38
67354;SHT30;54238;52.278;21.056;2022-11-24T17:06:48;2.78;71.44
67354;SHT30;54238;52.278;21.056;2022-11-24T17:09:15;2.81;71.38
67354;SHT30;54238;52.278;21.056;2022-11-24T17:11:44;2.91;71.31
67354;SHT30;54238;52.278;21.056;2022-11-24T17:14:11;3.05;71.10
67354;SHT30;54238;52.278;21.056;2022-11-24T17:16:41;3.13;70.78
67354;SHT30;54238;52.278;21.056;2022-11-24T17:19:08;3.10;70.81
67354;SHT30;54238;52.278;21.056;2022-11-24T17:21:38;3.05;70.94
67354;SHT30;54238;52.278;21.056;2022-11-24T17:24:07;2.99;70.91
67354;SHT30;54238;52.278;21.056;2022-11-24T17:26:43;2.88;71.11
67354;SHT30;54238;52.278;21.056;2022-11-24T17:29:10;2.78;71.33
67354;SHT30;54238;52.278;21.056;2022-11-24T17:31:42;2.69;71.43
67354;SHT30;54238;52.278;21.056;2022-11-24T17:34:10;2.61;71.62
67354;SHT30;54238;52.278;21.056;2022-11-24T17:36:40;2.59;71.82
67354;SHT30;54238;52.278;21.056;2022-11-24T17:39:14;2.61;71.89
67354;SHT30;54238;52.278;21.056;2022-11-24T17:41:44;2.71;71.83
67354;SHT30;54238;52.278;21.056;2022-11-24T17:44:11;2.84;71.81
67354;SHT30;54238;52.278;21.056;2022-11-24T17:46:38;2.95;71.62
67354;SHT30;54238;52.278;21.056;2022-11-24T17:49:05;3.06;71.44
67354;SHT30;54238;52.278;21.056;2022-11-24T17:51:34;3.12;71.42
67354;SHT30;54238;52.278;21.056;2022-11-24T17:54:05;3.12;71.34
67354;SHT30;54238;52.278;21.056;2022-11-24T17:56:32;3.06;71.47
67354;SHT30;54238;52.278;21.056;2022-11-24T17:59:06;3.00;71.52
67354;SHT30;54238;52.278;21.056;2022-11-24T18:01:35;2.88;71.65
67354;SHT30;54238;52.278;21.056;2022-11-24T18:04:04;2.76;71.91
67354;SHT30;54238;52.278;21.056;2022-11-24T18:06:36;2.69;72.13
67354;SHT30;54238;52.278;21.056;2022-11-24T18:09:09;2.62;72.29
67354;SHT30;54238;52.278;21.056;2022-11-24T18:11:40;2.60;72.35
67354;SHT30;54238;52.278;21.056;2022-11-24T18:14:10;2.67;72.43
67354;SHT30;54238;52.278;21.056;2022-11-24T18:16:37;2.76;72.34
67354;SHT30;54238;52.278;21.056;2022-11-24T18:19:08;2.89;72.24
67354;SHT30;54238;52.278;21.056;2022-11-24T18:21:36;3.00;72.05